Svir' — UAOO — position and weather

sailwx.info

Track history (hours):
 
Tides and Currents Weather Stations Pressure Air Temp Water Temp Dewpoint Dewpoint Depression Visibility Wind Speed Wind Dir Waves Ship Positions

Svir'

Last reported at 2017-Oct-19 17:29 UTC. Time now 2017-Oct-19 22:11 UTC.
Position N 45°20' E 036°28'.

Length 106 m; draft 3.8 m.

Type: Cargo ship. MMSI: 273310800.

Date/timePositionNaut miles runAvg speedWind from/ knotsBaromVisibWave heightAir tempDewpointWater temp
2017-Oct-19 17:29N 45°20' E 036°28'0 0.0
2017-Oct-19 17:00N 45°20' E 036°28'0 0.5
2017-Oct-19 16:30N 45°20' E 036°28'2 4.2
2017-Oct-19 15:59N 45°19' E 036°31'2 5.0
2017-Oct-19 15:31N 45°20' E 036°34'3 5.4
2017-Oct-19 15:01N 45°21' E 036°38'2 3.4
2017-Oct-19 14:31N 45°21' E 036°40'0 0.5
2017-Oct-19 13:56N 45°20' E 036°40'0 0.0
2017-Oct-19 13:30N 45°20' E 036°40'0 0.0
2017-Oct-19 13:00N 45°20' E 036°40'0 0.0
2017-Oct-19 12:29N 45°20' E 036°40'0 0.0
2017-Oct-19 11:57N 45°20' E 036°40'0 0.0
2017-Oct-19 11:24N 45°20' E 036°40'0 0.0
2017-Oct-19 10:58N 45°20' E 036°40'0 0.0
2017-Oct-19 10:29N 45°20' E 036°40'0 0.0
2017-Oct-19 09:56N 45°20' E 036°40'0 0.2
2017-Oct-19 09:25N 45°20' E 036°40'1 2.4
2017-Oct-19 09:00N 45°21' E 036°40'0 0.9
2017-Oct-19 08:30N 45°22' E 036°40'1 2.0
2017-Oct-19 07:56N 45°23' E 036°41'0 0.0
2017-Oct-19 07:28N 45°23' E 036°41'0 0.0
2017-Oct-19 07:00N 45°23' E 036°41'0 0.0
2017-Oct-19 06:29N 45°23' E 036°41'0 0.0
2017-Oct-19 05:58N 45°23' E 036°41'0 0.0
2017-Oct-19 05:29N 45°23' E 036°41'0 0.0
2017-Oct-19 04:51N 45°23' E 036°41'0 0.0
2017-Oct-19 04:29N 45°23' E 036°41'0 0.0
2017-Oct-19 03:58N 45°23' E 036°41'0 0.0
2017-Oct-19 03:27N 45°23' E 036°41'0 0.0
2017-Oct-19 03:01N 45°23' E 036°41'0 0.0
2017-Oct-19 02:28N 45°23' E 036°41'0 0.0
2017-Oct-19 01:55N 45°23' E 036°41'0 0.0
2017-Oct-19 01:29N 45°23' E 036°41'0 0.0
2017-Oct-19 01:01N 45°23' E 036°41'0 0.8
2017-Oct-19 00:30N 45°22' E 036°41'3 5.9
2017-Oct-19 00:00N 45°21' E 036°37'3 6.6
2017-Oct-18 23:30N 45°19' E 036°33'2 4.1
2017-Oct-18 23:00N 45°20' E 036°30'2 0.2
2017-Oct-18 14:49N 45°20' E 036°28'0 0.1
2017-Oct-18 14:01N 45°20' E 036°28'2 4.0
2017-Oct-18 13:30N 45°20' E 036°31'2 4.3
2017-Oct-18 13:00N 45°19' E 036°34'3 5.6
2017-Oct-18 12:30N 45°21' E 036°37'3 5.1
2017-Oct-18 12:00N 45°22' E 036°40'1 2.1
2017-Oct-18 11:30N 45°23' E 036°41'0 0.0
2017-Oct-18 11:00N 45°23' E 036°41'0 0.0
2017-Oct-18 10:30N 45°23' E 036°41'0 0.0
2017-Oct-18 10:01N 45°23' E 036°41'0 0.0
2017-Oct-18 09:31N 45°23' E 036°41'0 0.0
2017-Oct-18 09:00N 45°23' E 036°41'2 3.3
2017-Oct-18 08:31N 45°21' E 036°40'1 1.4
2017-Oct-18 07:59N 45°20' E 036°40'0 0.0
2017-Oct-18 07:30N 45°20' E 036°40'0 0.0
2017-Oct-18 06:58N 45°20' E 036°40'0 0.0
2017-Oct-18 06:27N 45°20' E 036°40'0 0.0
2017-Oct-18 05:59N 45°20' E 036°40'0 0.0
2017-Oct-18 05:29N 45°20' E 036°40'0 0.0
2017-Oct-18 04:59N 45°20' E 036°40'0 0.0
2017-Oct-18 04:28N 45°20' E 036°40'0 0.0
2017-Oct-18 04:00N 45°20' E 036°40'0 0.0
2017-Oct-18 03:29N 45°20' E 036°40'0 0.1
2017-Oct-18 03:00N 45°20' E 036°40'1 1.6
2017-Oct-18 02:30N 45°21' E 036°40'0 0.7
2017-Oct-18 01:57N 45°21' E 036°40'1 2.8
2017-Oct-18 01:30N 45°21' E 036°39'3 5.7
2017-Oct-18 01:00N 45°20' E 036°35'3 5.6
2017-Oct-18 00:30N 45°19' E 036°31'2 4.6
2017-Oct-18 00:00N 45°20' E 036°29'1 0.8
2017-Oct-17 23:19N 45°20' E 036°28'0 0.0
2017-Oct-17 21:34N 45°20' E 036°28'0 0.0
2017-Oct-17 17:01N 45°20' E 036°28'0 0.0
2017-Oct-17 16:51N 45°20' E 036°28'0 0.0
2017-Oct-17 16:28N 45°20' E 036°28'0 0.0
2017-Oct-17 15:58N 45°20' E 036°28'1 1.2
2017-Oct-17 15:30N 45°20' E 036°29'2 4.7
2017-Oct-17 15:00N 45°19' E 036°31'3 5.4
2017-Oct-17 14:30N 45°20' E 036°35'3 5.1
2017-Oct-17 14:00N 45°21' E 036°38'2 3.3
2017-Oct-17 13:30N 45°20' E 036°40'0 0.0
2017-Oct-17 12:59N 45°20' E 036°40'0 0.0
2017-Oct-17 12:27N 45°20' E 036°40'0 0.0
2017-Oct-17 11:55N 45°20' E 036°40'0 0.0
2017-Oct-17 11:30N 45°20' E 036°40'0 0.0
2017-Oct-17 11:00N 45°20' E 036°40'0 0.0
2017-Oct-17 10:28N 45°20' E 036°40'0 0.0
2017-Oct-17 09:58N 45°20' E 036°40'0 0.0
2017-Oct-17 09:24N 45°20' E 036°40'0 0.0
2017-Oct-17 08:58N 45°20' E 036°40'0 0.0
2017-Oct-17 08:28N 45°20' E 036°40'0 0.0
2017-Oct-17 07:55N 45°20' E 036°40'0 0.1
2017-Oct-17 07:30N 45°20' E 036°40'1 1.3
2017-Oct-17 07:00N 45°21' E 036°40'1 2.5
2017-Oct-17 06:29N 45°22' E 036°41'0 0.0
2017-Oct-17 05:59N 45°22' E 036°41'0 0.0
2017-Oct-17 05:30N 45°22' E 036°41'0 0.0
2017-Oct-17 05:00N 45°22' E 036°41'0 0.0
2017-Oct-17 04:28N 45°22' E 036°41'0 0.0
2017-Oct-17 03:57N 45°22' E 036°41'0 0.0
2017-Oct-17 03:16N 45°22' E 036°41'0 0.0
2017-Oct-17 03:00N 45°22' E 036°41'0 0.0
2017-Oct-17 02:30N 45°22' E 036°41'0 0.0
2017-Oct-17 01:55N 45°22' E 036°41'0 0.0
2017-Oct-17 01:27N 45°22' E 036°41'0 0.0
2017-Oct-17 00:58N 45°22' E 036°41'0 0.0
2017-Oct-17 00:25N 45°22' E 036°41'0 0.0
2017-Oct-16 23:54N 45°22' E 036°41'0 0.0
2017-Oct-16 23:29N 45°22' E 036°41'0 1.0
2017-Oct-16 23:00N 45°22' E 036°41'3 5.9
2017-Oct-16 22:30N 45°20' E 036°37'3 6.1
2017-Oct-16 22:01N 45°19' E 036°33'1 2.9
2017-Oct-16 21:30N 45°18' E 036°31'1 1.4
2017-Oct-16 21:00N 45°19' E 036°31'2 4.5
2017-Oct-16 20:30N 45°20' E 036°28'0 0.7
2017-Oct-16 19:59N 45°20' E 036°28'0 0.0
2017-Oct-16 15:14N 45°20' E 036°28'0 0.0
2017-Oct-16 14:46N 45°20' E 036°28'0 0.0
2017-Oct-16 13:39N 45°20' E 036°28'0 0.0
2017-Oct-16 12:27N 45°20' E 036°28'0 0.0
2017-Oct-16 08:59N 45°20' E 036°28'0 0.0
2017-Oct-16 08:07N 45°20' E 036°28'0 0.0
2017-Oct-16 07:42N 45°20' E 036°28'0 0.0
2017-Oct-16 07:07N 45°20' E 036°28'0 0.0
2017-Oct-16 05:16N 45°20' E 036°28'0 0.0
2017-Oct-16 04:53N 45°20' E 036°28'0 0.0
2017-Oct-16 02:47N 45°20' E 036°28'0 0.0
2017-Oct-15 20:20N 45°20' E 036°28'0 0.0
2017-Oct-15 19:43N 45°20' E 036°28'0 0.0
2017-Oct-15 08:01N 45°20' E 036°28'0 3.4
2017-Oct-15 08:00N 45°20' E 036°28'3 3.9
2017-Oct-15 07:22N 45°19' E 036°31'2 6.0
2017-Oct-15 07:00N 45°20' E 036°34'3 6.6
2017-Oct-15 06:31N 45°21' E 036°38'2 3.9
2017-Oct-15 06:00N 45°22' E 036°40'0 0.4
2017-Oct-15 05:30N 45°22' E 036°40'2 3.2
2017-Oct-15 05:01N 45°21' E 036°40'1 1.1
2017-Oct-15 04:27N 45°20' E 036°40'0 0.0
2017-Oct-15 03:53N 45°20' E 036°40'0 0.0
2017-Oct-15 03:27N 45°20' E 036°40'0 0.0
2017-Oct-15 03:00N 45°20' E 036°40'0 0.0
2017-Oct-15 02:28N 45°20' E 036°40'0 0.0
2017-Oct-15 01:59N 45°20' E 036°40'0 0.0
2017-Oct-15 01:28N 45°20' E 036°40'0 0.0
2017-Oct-15 00:59N 45°20' E 036°40'0 0.0
2017-Oct-15 00:28N 45°20' E 036°40'0 0.0
2017-Oct-14 23:57N 45°20' E 036°40'0 0.0
2017-Oct-14 23:24N 45°20' E 036°40'0 0.0
2017-Oct-14 23:00N 45°20' E 036°40'0 0.0
2017-Oct-14 22:29N 45°20' E 036°40'0 0.0
2017-Oct-14 21:59N 45°20' E 036°40'0 0.0
2017-Oct-14 21:29N 45°20' E 036°40'0 0.0
2017-Oct-14 21:00N 45°20' E 036°40'0 0.0
2017-Oct-14 20:25N 45°20' E 036°40'0 0.0
2017-Oct-14 19:54N 45°20' E 036°40'0 0.0
2017-Oct-14 19:30N 45°20' E 036°40'0 0.0
2017-Oct-14 19:00N 45°20' E 036°40'1 1.7
2017-Oct-14 18:30N 45°21' E 036°40'1 2.4
2017-Oct-14 17:53N 45°22' E 036°41'0 0.0
2017-Oct-14 17:24N 45°22' E 036°41'0 0.0
2017-Oct-14 17:00N 45°22' E 036°41'0 0.0
2017-Oct-14 16:31N 45°22' E 036°41'0 0.0
2017-Oct-14 15:58N 45°22' E 036°41'0 0.0
2017-Oct-14 15:29N 45°22' E 036°41'0 0.0
2017-Oct-14 14:58N 45°22' E 036°41'0 0.0
2017-Oct-14 14:27N 45°22' E 036°41'0 0.0
2017-Oct-14 13:59N 45°22' E 036°41'0 0.0
2017-Oct-14 13:27N 45°22' E 036°41'0 0.0
2017-Oct-14 13:00N 45°22' E 036°41'0 0.0
2017-Oct-14 12:29N 45°22' E 036°41'0 0.0
2017-Oct-14 12:01N 45°22' E 036°41'0 0.0
2017-Oct-14 11:30N 45°22' E 036°41'0 0.0
2017-Oct-14 10:55N 45°22' E 036°41'0 0.1
2017-Oct-14 10:28N 45°22' E 036°41'2 3.5
2017-Oct-14 10:00N 45°21' E 036°39'3 6.2
2017-Oct-14 09:30N 45°20' E 036°35'3 6.2
2017-Oct-14 09:00N 45°19' E 036°31'2 4.6
2017-Oct-14 08:30N 45°20' E 036°29'1 1.1
2017-Oct-14 07:57N 45°20' E 036°28'0 0.0
2017-Oct-14 07:26N 45°20' E 036°28'0 0.0
2017-Oct-14 06:56N 45°20' E 036°28'0 0.0
2017-Oct-14 06:30N 45°20' E 036°28'0 0.0
2017-Oct-14 05:59N 45°20' E 036°28'0 0.0
2017-Oct-14 04:40N 45°20' E 036°28'0 0.0
2017-Oct-14 04:24N 45°20' E 036°28'0 0.0
2017-Oct-14 01:21N 45°20' E 036°28'0 0.0
2017-Oct-14 01:00N 45°20' E 036°28'0 0.0
2017-Oct-14 00:15N 45°20' E 036°28'0 0.0
2017-Oct-13 23:45N 45°20' E 036°28'0 0.0
2017-Oct-13 23:27N 45°20' E 036°28'0 0.0
2017-Oct-13 23:00N 45°20' E 036°28'0 0.0
2017-Oct-13 22:24N 45°20' E 036°28'0 0.0
2017-Oct-13 21:48N 45°20' E 036°28'0 0.0
2017-Oct-13 21:28N 45°20' E 036°28'0 0.0
2017-Oct-13 20:58N 45°20' E 036°28'0 0.0
2017-Oct-13 20:25N 45°20' E 036°28'0 0.0
2017-Oct-13 20:00N 45°20' E 036°28'0 0.0
2017-Oct-13 19:28N 45°20' E 036°28'0 0.0
2017-Oct-13 18:53N 45°20' E 036°28'0 0.0
2017-Oct-13 18:24N 45°20' E 036°28'0 0.0
2017-Oct-13 17:51N 45°20' E 036°28'0 0.0
2017-Oct-13 17:20N 45°20' E 036°28'0 0.0
2017-Oct-13 16:48N 45°20' E 036°28'0 0.0
2017-Oct-13 14:45N 45°20' E 036°28'0 0.0
2017-Oct-13 14:30N 45°20' E 036°28'0 0.0
2017-Oct-13 13:54N 45°20' E 036°28'0 0.0
2017-Oct-13 13:23N 45°20' E 036°28'0 0.0
2017-Oct-13 13:00N 45°20' E 036°28'0 0.0
2017-Oct-13 12:19N 45°20' E 036°28'0 0.0
2017-Oct-13 11:54N 45°20' E 036°28'0 0.0
2017-Oct-13 11:29N 45°20' E 036°28'0 0.0
2017-Oct-13 10:53N 45°20' E 036°28'0 0.0
2017-Oct-13 09:43N 45°20' E 036°28'0 0.0
2017-Oct-13 09:23N 45°20' E 036°28'0 0.0
2017-Oct-13 08:35N 45°20' E 036°28'0 0.0
2017-Oct-13 08:27N 45°20' E 036°28'0 0.0
2017-Oct-13 07:59N 45°20' E 036°28'0 0.0
2017-Oct-13 07:23N 45°20' E 036°28'0 0.0
2017-Oct-13 07:00N 45°20' E 036°28'0 0.0
2017-Oct-13 06:27N 45°20' E 036°28'0 0.0
2017-Oct-13 05:55N 45°20' E 036°28'0 0.0
2017-Oct-13 05:25N 45°20' E 036°28'0 0.0
2017-Oct-13 04:52N 45°20' E 036°28'0 0.0
2017-Oct-13 04:28N 45°20' E 036°28'0 0.0
2017-Oct-13 01:48N 45°20' E 036°28'0 0.0
2017-Oct-12 21:25N 45°20' E 036°28'0 0.0
2017-Oct-12 19:34N 45°20' E 036°28'0 0.0
2017-Oct-12 18:11N 45°20' E 036°28'0 0.0
2017-Oct-12 17:41N 45°20' E 036°28'0 0.0
2017-Oct-12 15:34N 45°20' E 036°28'0 0.0
2017-Oct-12 14:24N 45°20' E 036°28'0 0.0
2017-Oct-12 13:48N 45°20' E 036°28'0 0.0
2017-Oct-12 13:17N 45°20' E 036°28'0 0.0
2017-Oct-12 13:00N 45°20' E 036°28'0 0.0
2017-Oct-12 11:55N 45°20' E 036°28'0 0.0
2017-Oct-12 11:24N 45°20' E 036°28'0 0.0
2017-Oct-12 10:17N 45°20' E 036°28'0 0.0
2017-Oct-12 09:58N 45°20' E 036°28'0 0.0
2017-Oct-12 08:51N 45°20' E 036°28'0 0.0
2017-Oct-12 07:58N 45°20' E 036°28'0 0.0
2017-Oct-12 07:17N 45°20' E 036°28'0 0.0
2017-Oct-12 06:53N 45°20' E 036°28'0 0.0
2017-Oct-12 06:13N 45°20' E 036°28'0 0.0
2017-Oct-12 05:58N 45°20' E 036°28'0 0.0
2017-Oct-12 05:25N 45°20' E 036°28'0 0.0
2017-Oct-12 04:54N 45°20' E 036°28'0 0.0
2017-Oct-12 04:28N 45°20' E 036°28'0 0.0
2017-Oct-12 03:56N 45°20' E 036°28'0 0.0
2017-Oct-12 03:29N 45°20' E 036°28'0 0.0
2017-Oct-12 01:50N 45°20' E 036°28'0 0.0
2017-Oct-12 00:18N 45°20' E 036°28'0 0.0
2017-Oct-11 23:57N 45°20' E 036°28'10 0.4
2017-Oct-10 23:58N 45°23' E 036°42'0 0.0
2017-Oct-10 23:25N 45°23' E 036°42'0 0.0
2017-Oct-10 22:52N 45°23' E 036°42'0 1.2
2017-Oct-10 22:31N 45°23' E 036°41'3 5.0
2017-Oct-10 22:00N 45°21' E 036°40'0 0.8
2017-Oct-10 21:28N 45°20' E 036°40'0 0.0
2017-Oct-10 20:59N 45°20' E 036°40'0 0.0
2017-Oct-10 20:29N 45°20' E 036°40'0 0.0
2017-Oct-10 19:58N 45°20' E 036°40'0 0.0
2017-Oct-10 19:25N 45°20' E 036°40'0 0.0
2017-Oct-10 18:58N 45°20' E 036°40'0 0.0
2017-Oct-10 18:29N 45°20' E 036°40'0 0.0
2017-Oct-10 17:56N 45°20' E 036°40'0 0.0
2017-Oct-10 17:30N 45°20' E 036°40'0 0.0
2017-Oct-10 17:01N 45°20' E 036°40'0 0.3
2017-Oct-10 16:30N 45°20' E 036°40'1 1.6
2017-Oct-10 16:00N 45°21' E 036°40'2 4.2
2017-Oct-10 15:30N 45°23' E 036°41'1 1.1
2017-Oct-10 15:00N 45°24' E 036°41'0 0.0
2017-Oct-10 14:00N 45°23' E 036°41'0 0.0
2017-Oct-10 13:30N 45°23' E 036°41'0 0.0
2017-Oct-10 13:00N 45°23' E 036°41'0 0.0
2017-Oct-10 12:30N 45°24' E 036°41'0 0.0
2017-Oct-10 12:00N 45°24' E 036°41'0 0.0
2017-Oct-10 11:30N 45°24' E 036°41'0 0.0
2017-Oct-10 11:00N 45°24' E 036°41'0 0.1
2017-Oct-10 10:30N 45°23' E 036°41'2 3.9
2017-Oct-10 10:00N 45°22' E 036°40'3 6.9
2017-Oct-10 09:30N 45°20' E 036°36'3 7.0
2017-Oct-10 09:00N 45°19' E 036°31'2 4.6
2017-Oct-10 08:30N 45°21' E 036°29'1 1.3
2017-Oct-10 08:00N 45°20' E 036°28'0 0.0
2017-Oct-10 07:29N 45°20' E 036°28'0 0.0
2017-Oct-10 07:00N 45°20' E 036°28'0 0.0
2017-Oct-10 06:30N 45°20' E 036°28'0 0.0
2017-Oct-10 06:00N 45°20' E 036°28'0 0.0
2017-Oct-10 05:30N 45°20' E 036°28'0 0.0
2017-Oct-10 05:00N 45°20' E 036°28'0 0.0
2017-Oct-10 04:30N 45°20' E 036°28'0 0.0
2017-Oct-10 04:00N 45°20' E 036°28'0 0.0
2017-Oct-10 03:25N 45°20' E 036°28'0 0.0
2017-Oct-10 02:58N 45°20' E 036°28'0 0.0
2017-Oct-10 02:30N 45°20' E 036°28'0 0.0
2017-Oct-10 01:19N 45°20' E 036°28'0 0.0
2017-Oct-10 00:59N 45°20' E 036°28'0 0.0
2017-Oct-10 00:30N 45°20' E 036°28'0 0.0
2017-Oct-09 23:21N 45°20' E 036°28'0 0.0
2017-Oct-09 23:00N 45°20' E 036°28'0 0.0
2017-Oct-09 22:28N 45°20' E 036°28'0 0.0
2017-Oct-09 18:30N 45°20' E 036°28'  
Track history (hours):
 
Tides and Currents Weather Stations Pressure Air Temp Water Temp Dewpoint Dewpoint Depression Visibility Wind Speed Wind Dir Waves Ship Positions

Svir'

Last reported at 2017-Oct-19 17:29 UTC. Time now 2017-Oct-19 22:11 UTC.
Position N 45°20' E 036°28'.

Length 106 m; draft 3.8 m.

Type: Cargo ship. MMSI: 273310800.

Date/timePositionNaut miles runAvg speedWind from/ knotsBaromVisibWave heightAir tempDewpointWater temp
2017-Oct-19 17:29N 45°20' E 036°28'0 0.0
2017-Oct-19 17:00N 45°20' E 036°28'0 0.5
2017-Oct-19 16:30N 45°20' E 036°28'2 4.2
2017-Oct-19 15:59N 45°19' E 036°31'2 5.0
2017-Oct-19 15:31N 45°20' E 036°34'3 5.4
2017-Oct-19 15:01N 45°21' E 036°38'2 3.4
2017-Oct-19 14:31N 45°21' E 036°40'0 0.5
2017-Oct-19 13:56N 45°20' E 036°40'0 0.0
2017-Oct-19 13:30N 45°20' E 036°40'0 0.0
2017-Oct-19 13:00N 45°20' E 036°40'0 0.0
2017-Oct-19 12:29N 45°20' E 036°40'0 0.0
2017-Oct-19 11:57N 45°20' E 036°40'0 0.0
2017-Oct-19 11:24N 45°20' E 036°40'0 0.0
2017-Oct-19 10:58N 45°20' E 036°40'0 0.0
2017-Oct-19 10:29N 45°20' E 036°40'0 0.0
2017-Oct-19 09:56N 45°20' E 036°40'0 0.2
2017-Oct-19 09:25N 45°20' E 036°40'1 2.4
2017-Oct-19 09:00N 45°21' E 036°40'0 0.9
2017-Oct-19 08:30N 45°22' E 036°40'1 2.0
2017-Oct-19 07:56N 45°23' E 036°41'0 0.0
2017-Oct-19 07:28N 45°23' E 036°41'0 0.0
2017-Oct-19 07:00N 45°23' E 036°41'0 0.0
2017-Oct-19 06:29N 45°23' E 036°41'0 0.0
2017-Oct-19 05:58N 45°23' E 036°41'0 0.0
2017-Oct-19 05:29N 45°23' E 036°41'0 0.0
2017-Oct-19 04:51N 45°23' E 036°41'0 0.0
2017-Oct-19 04:29N 45°23' E 036°41'0 0.0
2017-Oct-19 03:58N 45°23' E 036°41'0 0.0
2017-Oct-19 03:27N 45°23' E 036°41'0 0.0
2017-Oct-19 03:01N 45°23' E 036°41'0 0.0
2017-Oct-19 02:28N 45°23' E 036°41'0 0.0
2017-Oct-19 01:55N 45°23' E 036°41'0 0.0
2017-Oct-19 01:29N 45°23' E 036°41'0 0.0
2017-Oct-19 01:01N 45°23' E 036°41'0 0.8
2017-Oct-19 00:30N 45°22' E 036°41'3 5.9
2017-Oct-19 00:00N 45°21' E 036°37'3 6.6
2017-Oct-18 23:30N 45°19' E 036°33'2 4.1
2017-Oct-18 23:00N 45°20' E 036°30'2 0.2
2017-Oct-18 14:49N 45°20' E 036°28'0 0.1
2017-Oct-18 14:01N 45°20' E 036°28'2 4.0
2017-Oct-18 13:30N 45°20' E 036°31'2 4.3
2017-Oct-18 13:00N 45°19' E 036°34'3 5.6
2017-Oct-18 12:30N 45°21' E 036°37'3 5.1
2017-Oct-18 12:00N 45°22' E 036°40'1 2.1
2017-Oct-18 11:30N 45°23' E 036°41'0 0.0
2017-Oct-18 11:00N 45°23' E 036°41'0 0.0
2017-Oct-18 10:30N 45°23' E 036°41'0 0.0
2017-Oct-18 10:01N 45°23' E 036°41'0 0.0
2017-Oct-18 09:31N 45°23' E 036°41'0 0.0
2017-Oct-18 09:00N 45°23' E 036°41'2 3.3
2017-Oct-18 08:31N 45°21' E 036°40'1 1.4
2017-Oct-18 07:59N 45°20' E 036°40'0 0.0
2017-Oct-18 07:30N 45°20' E 036°40'0 0.0
2017-Oct-18 06:58N 45°20' E 036°40'0 0.0
2017-Oct-18 06:27N 45°20' E 036°40'0 0.0
2017-Oct-18 05:59N 45°20' E 036°40'0 0.0
2017-Oct-18 05:29N 45°20' E 036°40'0 0.0
2017-Oct-18 04:59N 45°20' E 036°40'0 0.0
2017-Oct-18 04:28N 45°20' E 036°40'0 0.0
2017-Oct-18 04:00N 45°20' E 036°40'0 0.0
2017-Oct-18 03:29N 45°20' E 036°40'0 0.1
2017-Oct-18 03:00N 45°20' E 036°40'1 1.6
2017-Oct-18 02:30N 45°21' E 036°40'0 0.7
2017-Oct-18 01:57N 45°21' E 036°40'1 2.8
2017-Oct-18 01:30N 45°21' E 036°39'3 5.7
2017-Oct-18 01:00N 45°20' E 036°35'3 5.6
2017-Oct-18 00:30N 45°19' E 036°31'2 4.6
2017-Oct-18 00:00N 45°20' E 036°29'1 0.8
2017-Oct-17 23:19N 45°20' E 036°28'0 0.0
2017-Oct-17 21:34N 45°20' E 036°28'0 0.0
2017-Oct-17 17:01N 45°20' E 036°28'0 0.0
2017-Oct-17 16:51N 45°20' E 036°28'0 0.0
2017-Oct-17 16:28N 45°20' E 036°28'0 0.0
2017-Oct-17 15:58N 45°20' E 036°28'1 1.2
2017-Oct-17 15:30N 45°20' E 036°29'2 4.7
2017-Oct-17 15:00N 45°19' E 036°31'3 5.4
2017-Oct-17 14:30N 45°20' E 036°35'3 5.1
2017-Oct-17 14:00N 45°21' E 036°38'2 3.3
2017-Oct-17 13:30N 45°20' E 036°40'0 0.0
2017-Oct-17 12:59N 45°20' E 036°40'0 0.0
2017-Oct-17 12:27N 45°20' E 036°40'0 0.0
2017-Oct-17 11:55N 45°20' E 036°40'0 0.0
2017-Oct-17 11:30N 45°20' E 036°40'0 0.0
2017-Oct-17 11:00N 45°20' E 036°40'0 0.0
2017-Oct-17 10:28N 45°20' E 036°40'0 0.0
2017-Oct-17 09:58N 45°20' E 036°40'0 0.0
2017-Oct-17 09:24N 45°20' E 036°40'0 0.0
2017-Oct-17 08:58N 45°20' E 036°40'0 0.0
2017-Oct-17 08:28N 45°20' E 036°40'0 0.0
2017-Oct-17 07:55N 45°20' E 036°40'0 0.1
2017-Oct-17 07:30N 45°20' E 036°40'1 1.3
2017-Oct-17 07:00N 45°21' E 036°40'1 2.5
2017-Oct-17 06:29N 45°22' E 036°41'0 0.0
2017-Oct-17 05:59N 45°22' E 036°41'0 0.0
2017-Oct-17 05:30N 45°22' E 036°41'0 0.0
2017-Oct-17 05:00N 45°22' E 036°41'0 0.0
2017-Oct-17 04:28N 45°22' E 036°41'0 0.0
2017-Oct-17 03:57N 45°22' E 036°41'0 0.0
2017-Oct-17 03:16N 45°22' E 036°41'0 0.0
2017-Oct-17 03:00N 45°22' E 036°41'0 0.0
2017-Oct-17 02:30N 45°22' E 036°41'0 0.0
2017-Oct-17 01:55N 45°22' E 036°41'0 0.0
2017-Oct-17 01:27N 45°22' E 036°41'0 0.0
2017-Oct-17 00:58N 45°22' E 036°41'0 0.0
2017-Oct-17 00:25N 45°22' E 036°41'0 0.0
2017-Oct-16 23:54N 45°22' E 036°41'0 0.0
2017-Oct-16 23:29N 45°22' E 036°41'0 1.0
2017-Oct-16 23:00N 45°22' E 036°41'3 5.9
2017-Oct-16 22:30N 45°20' E 036°37'3 6.1
2017-Oct-16 22:01N 45°19' E 036°33'1 2.9
2017-Oct-16 21:30N 45°18' E 036°31'1 1.4
2017-Oct-16 21:00N 45°19' E 036°31'2 4.5
2017-Oct-16 20:30N 45°20' E 036°28'0 0.7
2017-Oct-16 19:59N 45°20' E 036°28'0 0.0
2017-Oct-16 15:14N 45°20' E 036°28'0 0.0
2017-Oct-16 14:46N 45°20' E 036°28'0 0.0
2017-Oct-16 13:39N 45°20' E 036°28'0 0.0
2017-Oct-16 12:27N 45°20' E 036°28'0 0.0
2017-Oct-16 08:59N 45°20' E 036°28'0 0.0
2017-Oct-16 08:07N 45°20' E 036°28'0 0.0
2017-Oct-16 07:42N 45°20' E 036°28'0 0.0
2017-Oct-16 07:07N 45°20' E 036°28'0 0.0
2017-Oct-16 05:16N 45°20' E 036°28'0 0.0
2017-Oct-16 04:53N 45°20' E 036°28'0 0.0
2017-Oct-16 02:47N 45°20' E 036°28'0 0.0
2017-Oct-15 20:20N 45°20' E 036°28'0 0.0
2017-Oct-15 19:43N 45°20' E 036°28'0 0.0
2017-Oct-15 08:01N 45°20' E 036°28'0 3.4
2017-Oct-15 08:00N 45°20' E 036°28'3 3.9
2017-Oct-15 07:22N 45°19' E 036°31'2 6.0
2017-Oct-15 07:00N 45°20' E 036°34'3 6.6
2017-Oct-15 06:31N 45°21' E 036°38'2 3.9
2017-Oct-15 06:00N 45°22' E 036°40'0 0.4
2017-Oct-15 05:30N 45°22' E 036°40'2 3.2
2017-Oct-15 05:01N 45°21' E 036°40'1 1.1
2017-Oct-15 04:27N 45°20' E 036°40'0 0.0
2017-Oct-15 03:53N 45°20' E 036°40'0 0.0
2017-Oct-15 03:27N 45°20' E 036°40'0 0.0
2017-Oct-15 03:00N 45°20' E 036°40'0 0.0
2017-Oct-15 02:28N 45°20' E 036°40'0 0.0
2017-Oct-15 01:59N 45°20' E 036°40'0 0.0
2017-Oct-15 01:28N 45°20' E 036°40'0 0.0
2017-Oct-15 00:59N 45°20' E 036°40'0 0.0
2017-Oct-15 00:28N 45°20' E 036°40'0 0.0
2017-Oct-14 23:57N 45°20' E 036°40'0 0.0
2017-Oct-14 23:24N 45°20' E 036°40'0 0.0
2017-Oct-14 23:00N 45°20' E 036°40'0 0.0
2017-Oct-14 22:29N 45°20' E 036°40'0 0.0
2017-Oct-14 21:59N 45°20' E 036°40'0 0.0
2017-Oct-14 21:29N 45°20' E 036°40'0 0.0
2017-Oct-14 21:00N 45°20' E 036°40'0 0.0
2017-Oct-14 20:25N 45°20' E 036°40'0 0.0
2017-Oct-14 19:54N 45°20' E 036°40'0 0.0
2017-Oct-14 19:30N 45°20' E 036°40'0 0.0
2017-Oct-14 19:00N 45°20' E 036°40'1 1.7
2017-Oct-14 18:30N 45°21' E 036°40'1 2.4
2017-Oct-14 17:53N 45°22' E 036°41'0 0.0
2017-Oct-14 17:24N 45°22' E 036°41'0 0.0
2017-Oct-14 17:00N 45°22' E 036°41'0 0.0
2017-Oct-14 16:31N 45°22' E 036°41'0 0.0
2017-Oct-14 15:58N 45°22' E 036°41'0 0.0
2017-Oct-14 15:29N 45°22' E 036°41'0 0.0
2017-Oct-14 14:58N 45°22' E 036°41'0 0.0
2017-Oct-14 14:27N 45°22' E 036°41'0 0.0
2017-Oct-14 13:59N 45°22' E 036°41'0 0.0
2017-Oct-14 13:27N 45°22' E 036°41'0 0.0
2017-Oct-14 13:00N 45°22' E 036°41'0 0.0
2017-Oct-14 12:29N 45°22' E 036°41'0 0.0
2017-Oct-14 12:01N 45°22' E 036°41'0 0.0
2017-Oct-14 11:30N 45°22' E 036°41'0 0.0
2017-Oct-14 10:55N 45°22' E 036°41'0 0.1
2017-Oct-14 10:28N 45°22' E 036°41'2 3.5
2017-Oct-14 10:00N 45°21' E 036°39'3 6.2
2017-Oct-14 09:30N 45°20' E 036°35'3 6.2
2017-Oct-14 09:00N 45°19' E 036°31'2 4.6
2017-Oct-14 08:30N 45°20' E 036°29'1 1.1
2017-Oct-14 07:57N 45°20' E 036°28'0 0.0
2017-Oct-14 07:26N 45°20' E 036°28'0 0.0
2017-Oct-14 06:56N 45°20' E 036°28'0 0.0
2017-Oct-14 06:30N 45°20' E 036°28'0 0.0
2017-Oct-14 05:59N 45°20' E 036°28'0 0.0
2017-Oct-14 04:40N 45°20' E 036°28'0 0.0
2017-Oct-14 04:24N 45°20' E 036°28'0 0.0
2017-Oct-14 01:21N 45°20' E 036°28'0 0.0
2017-Oct-14 01:00N 45°20' E 036°28'0 0.0
2017-Oct-14 00:15N 45°20' E 036°28'0 0.0
2017-Oct-13 23:45N 45°20' E 036°28'0 0.0
2017-Oct-13 23:27N 45°20' E 036°28'0 0.0
2017-Oct-13 23:00N 45°20' E 036°28'0 0.0
2017-Oct-13 22:24N 45°20' E 036°28'0 0.0
2017-Oct-13 21:48N 45°20' E 036°28'0 0.0
2017-Oct-13 21:28N 45°20' E 036°28'0 0.0
2017-Oct-13 20:58N 45°20' E 036°28'0 0.0
2017-Oct-13 20:25N 45°20' E 036°28'0 0.0
2017-Oct-13 20:00N 45°20' E 036°28'0 0.0
2017-Oct-13 19:28N 45°20' E 036°28'0 0.0
2017-Oct-13 18:53N 45°20' E 036°28'0 0.0
2017-Oct-13 18:24N 45°20' E 036°28'0 0.0
2017-Oct-13 17:51N 45°20' E 036°28'0 0.0
2017-Oct-13 17:20N 45°20' E 036°28'0 0.0
2017-Oct-13 16:48N 45°20' E 036°28'0 0.0
2017-Oct-13 14:45N 45°20' E 036°28'0 0.0
2017-Oct-13 14:30N 45°20' E 036°28'0 0.0
2017-Oct-13 13:54N 45°20' E 036°28'0 0.0
2017-Oct-13 13:23N 45°20' E 036°28'0 0.0
2017-Oct-13 13:00N 45°20' E 036°28'0 0.0
2017-Oct-13 12:19N 45°20' E 036°28'0 0.0
2017-Oct-13 11:54N 45°20' E 036°28'0 0.0
2017-Oct-13 11:29N 45°20' E 036°28'0 0.0
2017-Oct-13 10:53N 45°20' E 036°28'0 0.0
2017-Oct-13 09:43N 45°20' E 036°28'0 0.0
2017-Oct-13 09:23N 45°20' E 036°28'0 0.0
2017-Oct-13 08:35N 45°20' E 036°28'0 0.0
2017-Oct-13 08:27N 45°20' E 036°28'0 0.0
2017-Oct-13 07:59N 45°20' E 036°28'0 0.0
2017-Oct-13 07:23N 45°20' E 036°28'0 0.0
2017-Oct-13 07:00N 45°20' E 036°28'0 0.0
2017-Oct-13 06:27N 45°20' E 036°28'0 0.0
2017-Oct-13 05:55N 45°20' E 036°28'0 0.0
2017-Oct-13 05:25N 45°20' E 036°28'0 0.0
2017-Oct-13 04:52N 45°20' E 036°28'0 0.0
2017-Oct-13 04:28N 45°20' E 036°28'0 0.0
2017-Oct-13 01:48N 45°20' E 036°28'0 0.0
2017-Oct-12 21:25N 45°20' E 036°28'0 0.0
2017-Oct-12 19:34N 45°20' E 036°28'0 0.0
2017-Oct-12 18:11N 45°20' E 036°28'0 0.0
2017-Oct-12 17:41N 45°20' E 036°28'0 0.0
2017-Oct-12 15:34N 45°20' E 036°28'0 0.0
2017-Oct-12 14:24N 45°20' E 036°28'0 0.0
2017-Oct-12 13:48N 45°20' E 036°28'0 0.0
2017-Oct-12 13:17N 45°20' E 036°28'0 0.0
2017-Oct-12 13:00N 45°20' E 036°28'0 0.0
2017-Oct-12 11:55N 45°20' E 036°28'0 0.0
2017-Oct-12 11:24N 45°20' E 036°28'0 0.0
2017-Oct-12 10:17N 45°20' E 036°28'0 0.0
2017-Oct-12 09:58N 45°20' E 036°28'0 0.0
2017-Oct-12 08:51N 45°20' E 036°28'0 0.0
2017-Oct-12 07:58N 45°20' E 036°28'0 0.0
2017-Oct-12 07:17N 45°20' E 036°28'0 0.0
2017-Oct-12 06:53N 45°20' E 036°28'0 0.0
2017-Oct-12 06:13N 45°20' E 036°28'0 0.0
2017-Oct-12 05:58N 45°20' E 036°28'0 0.0
2017-Oct-12 05:25N 45°20' E 036°28'0 0.0
2017-Oct-12 04:54N 45°20' E 036°28'0 0.0
2017-Oct-12 04:28N 45°20' E 036°28'0 0.0
2017-Oct-12 03:56N 45°20' E 036°28'0 0.0
2017-Oct-12 03:29N 45°20' E 036°28'0 0.0
2017-Oct-12 01:50N 45°20' E 036°28'0 0.0
2017-Oct-12 00:18N 45°20' E 036°28'0 0.0
2017-Oct-11 23:57N 45°20' E 036°28'10 0.4
2017-Oct-10 23:58N 45°23' E 036°42'0 0.0
2017-Oct-10 23:25N 45°23' E 036°42'0 0.0
2017-Oct-10 22:52N 45°23' E 036°42'0 1.2
2017-Oct-10 22:31N 45°23' E 036°41'3 5.0
2017-Oct-10 22:00N 45°21' E 036°40'0 0.8
2017-Oct-10 21:28N 45°20' E 036°40'0 0.0
2017-Oct-10 20:59N 45°20' E 036°40'0 0.0
2017-Oct-10 20:29N 45°20' E 036°40'0 0.0
2017-Oct-10 19:58N 45°20' E 036°40'0 0.0
2017-Oct-10 19:25N 45°20' E 036°40'0 0.0
2017-Oct-10 18:58N 45°20' E 036°40'0 0.0
2017-Oct-10 18:29N 45°20' E 036°40'0 0.0
2017-Oct-10 17:56N 45°20' E 036°40'0 0.0
2017-Oct-10 17:30N 45°20' E 036°40'0 0.0
2017-Oct-10 17:01N 45°20' E 036°40'0 0.3
2017-Oct-10 16:30N 45°20' E 036°40'1 1.6
2017-Oct-10 16:00N 45°21' E 036°40'2 4.2
2017-Oct-10 15:30N 45°23' E 036°41'1 1.1
2017-Oct-10 15:00N 45°24' E 036°41'0 0.0
2017-Oct-10 14:00N 45°23' E 036°41'0 0.0
2017-Oct-10 13:30N 45°23' E 036°41'0 0.0
2017-Oct-10 13:00N 45°23' E 036°41'0 0.0
2017-Oct-10 12:30N 45°24' E 036°41'0 0.0
2017-Oct-10 12:00N 45°24' E 036°41'0 0.0
2017-Oct-10 11:30N 45°24' E 036°41'0 0.0
2017-Oct-10 11:00N 45°24' E 036°41'0 0.1
2017-Oct-10 10:30N 45°23' E 036°41'2 3.9
2017-Oct-10 10:00N 45°22' E 036°40'3 6.9
2017-Oct-10 09:30N 45°20' E 036°36'3 7.0
2017-Oct-10 09:00N 45°19' E 036°31'2 4.6
2017-Oct-10 08:30N 45°21' E 036°29'1 1.3
2017-Oct-10 08:00N 45°20' E 036°28'0 0.0
2017-Oct-10 07:29N 45°20' E 036°28'0 0.0
2017-Oct-10 07:00N 45°20' E 036°28'0 0.0
2017-Oct-10 06:30N 45°20' E 036°28'0 0.0
2017-Oct-10 06:00N 45°20' E 036°28'0 0.0
2017-Oct-10 05:30N 45°20' E 036°28'0 0.0
2017-Oct-10 05:00N 45°20' E 036°28'0 0.0
2017-Oct-10 04:30N 45°20' E 036°28'0 0.0
2017-Oct-10 04:00N 45°20' E 036°28'0 0.0
2017-Oct-10 03:25N 45°20' E 036°28'0 0.0
2017-Oct-10 02:58N 45°20' E 036°28'0 0.0
2017-Oct-10 02:30N 45°20' E 036°28'0 0.0
2017-Oct-10 01:19N 45°20' E 036°28'0 0.0
2017-Oct-10 00:59N 45°20' E 036°28'0 0.0
2017-Oct-10 00:30N 45°20' E 036°28'0 0.0
2017-Oct-09 23:21N 45°20' E 036°28'0 0.0
2017-Oct-09 23:00N 45°20' E 036°28'0 0.0
2017-Oct-09 22:28N 45°20' E 036°28'0 0.0
2017-Oct-09 18:30N 45°20' E 036°28'  

Dump ship's entire track history